Time;durP1;ratioP1;P1;durP2;ratioP2;P2;SDS_P1;SDS_P2;PMS_P1;PMS_P2;Temp;Humidity;BMP_temperature;BMP_pressure;BME280_temperature;BME280_humidity;BME280_pressure;Samples;Min_cycle;Max_cycle;Signal;HPM_P1;HPM_P2
2022/12/13 00:02:00;;;;;;;3.75;1.47;;;;;;;12.68;80.88;100689.94;1853217;77;21010;-49
2022/12/13 00:04:29;;;;;;;4.00;2.75;;;;;;;12.66;81.00;100695.77;1853763;77;21116;-47
2022/12/13 00:06:59;;;;;;;3.70;2.25;;;;;;;12.65;81.16;100692.75;1832561;77;21078;-46
2022/12/13 00:09:28;;;;;;;6.85;2.08;;;;;;;12.64;80.97;100689.70;1828415;77;21169;-44
2022/12/13 00:11:56;;;;;;;6.60;2.50;;;;;;;12.62;80.95;100686.77;1850521;77;21102;-47
2022/12/13 00:14:25;;;;;;;4.85;1.80;;;;;;;12.57;81.03;100688.29;1836658;77;21022;-48
2022/12/13 00:16:54;;;;;;;3.62;1.57;;;;;;;12.52;81.31;100692.93;1823759;79;21124;-48
2022/12/13 00:19:23;;;;;;;5.90;2.20;;;;;;;12.51;81.42;100688.59;1823678;79;21094;-47
2022/12/13 00:21:52;;;;;;;5.72;2.60;;;;;;;12.51;81.54;100681.99;1823863;79;21034;-48
2022/12/13 00:24:21;;;;;;;5.37;2.20;;;;;;;12.50;81.67;100689.03;1849388;77;21136;-46
2022/12/13 00:26:50;;;;;;;5.58;1.60;;;;;;;12.52;81.78;100694.25;1854144;77;21093;-47
2022/12/13 00:29:19;;;;;;;5.00;2.58;;;;;;;12.54;81.88;100679.18;1854431;76;21070;-47
2022/12/13 00:31:47;;;;;;;5.85;2.72;;;;;;;12.54;81.86;100681.82;1854762;77;21098;-47
2022/12/13 00:34:17;;;;;;;8.08;2.83;;;;;;;12.55;81.70;100690.16;1854833;77;21624;-47
2022/12/13 00:36:47;;;;;;;16.97;3.05;;;;;;;12.53;81.59;100690.70;1854894;77;21128;-50
2022/12/13 00:39:17;;;;;;;4.28;2.12;;;;;;;12.50;81.62;100688.19;1854876;77;21489;-46
2022/12/13 00:41:47;;;;;;;6.65;2.30;;;;;;;12.47;81.67;100694.96;1854873;77;21094;-46
2022/12/13 00:44:18;;;;;;;6.12;2.65;;;;;;;12.43;81.87;100695.57;1855086;77;21485;-45
2022/12/13 00:46:46;;;;;;;5.95;2.50;;;;;;;12.45;81.90;100700.75;1854807;76;21134;-45
2022/12/13 00:49:15;;;;;;;5.95;2.75;;;;;;;12.45;81.84;100699.42;1854876;77;21017;-45
2022/12/13 00:51:44;;;;;;;8.65;3.15;;;;;;;12.44;81.91;100700.38;1854894;77;21053;-45
2022/12/13 00:54:13;;;;;;;3.95;2.00;;;;;;;12.44;81.95;100703.02;1854889;77;21073;-47
2022/12/13 00:56:41;;;;;;;3.52;1.80;;;;;;;12.44;81.80;100696.41;1854957;77;21035;-47
2022/12/13 00:59:12;;;;;;;5.10;2.70;;;;;;;12.43;81.85;100704.81;1854787;77;21037;-46
2022/12/13 01:01:41;;;;;;;4.90;2.42;;;;;;;12.45;81.73;100699.42;1855022;77;21037;-47
2022/12/13 01:04:10;;;;;;;3.80;2.37;;;;;;;12.48;81.63;100704.58;1854866;77;21107;-47
2022/12/13 01:06:45;;;;;;;6.42;2.20;;;;;;;12.48;81.60;100696.18;1853308;77;21580;-46
2022/12/13 01:09:16;;;;;;;3.12;1.92;;;;;;;12.49;81.73;100699.23;1852769;77;21121;-46
2022/12/13 01:11:46;;;;;;;6.97;2.95;;;;;;;12.51;81.60;100704.44;1854148;77;21086;-46
2022/12/13 01:14:15;;;;;;;9.18;3.20;;;;;;;12.51;81.52;100700.00;1836046;77;21591;-46
2022/12/13 01:16:44;;;;;;;10.90;3.40;;;;;;;12.49;81.44;100698.37;1817818;79;21582;-47
2022/12/13 01:19:12;;;;;;;8.03;3.08;;;;;;;12.46;81.99;100698.52;1817745;79;21103;-47
2022/12/13 01:21:41;;;;;;;6.83;2.90;;;;;;;12.42;83.32;100704.87;1817787;78;21095;-47
2022/12/13 01:24:10;;;;;;;7.45;3.25;;;;;;;12.34;83.59;100705.25;1850003;77;21175;-47
2022/12/13 01:26:39;;;;;;;6.62;2.45;;;;;;;12.26;84.61;100702.94;1851281;77;21085;-47
2022/12/13 01:29:10;;;;;;;6.03;3.10;;;;;;;12.22;85.04;100700.05;1853478;77;21239;-47
2022/12/13 01:31:40;;;;;;;10.13;3.33;;;;;;;12.18;85.43;100701.13;1852298;76;21102;-43
2022/12/13 01:34:11;;;;;;;10.18;3.60;;;;;;;12.15;85.41;100703.46;1853375;77;21118;-45
2022/12/13 01:36:42;;;;;;;7.55;3.92;;;;;;;12.12;85.39;100701.42;1853426;76;21160;-43
2022/12/13 01:39:13;;;;;;;8.20;3.33;;;;;;;12.11;85.28;100704.98;1826540;77;21066;-46
2022/12/13 01:41:43;;;;;;;10.32;3.70;;;;;;;12.10;85.19;100704.60;1820115;79;21023;-49
2022/12/13 01:44:48;;;;;;;16.48;4.58;;;;;;;12.10;85.06;100700.17;1820062;79;21082;-48
2022/12/13 01:47:24;;;;;;;5.78;2.98;;;;;;;12.12;84.94;100691.72;1820147;79;21631;-46
2022/12/13 01:49:56;;;;;;;10.10;3.52;;;;;;;12.13;84.83;100697.84;1828124;77;21042;-45
2022/12/13 01:52:25;;;;;;;6.72;3.40;;;;;;;12.16;84.75;100692.43;1850368;76;21490;-45
2022/12/13 01:54:57;;;;;;;13.13;4.42;;;;;;;12.17;84.62;100691.48;1850419;77;21485;-44
2022/12/13 01:57:27;;;;;;;12.35;4.30;;;;;;;12.19;84.51;100690.09;1855793;76;21046;-45
2022/12/13 01:59:56;;;;;;;8.08;3.00;;;;;;;12.21;84.41;100698.80;1863097;76;21500;-44
2022/12/13 02:02:25;;;;;;;7.70;3.37;;;;;;;12.21;84.40;100692.20;1853957;77;21125;-47
2022/12/13 02:04:57;;;;;;;6.70;3.90;;;;;;;12.21;84.42;100690.44;1852675;77;21110;-49
2022/12/13 02:07:28;;;;;;;9.55;3.47;;;;;;;12.19;84.63;100690.98;1851291;77;21047;-47
2022/12/13 02:10:00;;;;;;;7.83;3.37;;;;;;;12.18;84.59;100685.30;1852580;77;21133;-47
2022/12/13 02:12:31;;;;;;;10.30;3.35;;;;;;;12.16;84.66;100691.95;1852679;77;21132;-47
2022/12/13 02:15:03;;;;;;;8.23;2.45;;;;;;;12.15;85.10;100690.27;1853069;77;21015;-46
2022/12/13 02:17:57;;;;;;;13.13;3.30;;;;;;;12.15;85.16;100686.74;1854205;77;21034;-46
2022/12/13 02:20:30;;;;;;;;;;;;;;;12.14;85.34;100689.02;1856128;77;21148;-44
2022/12/13 02:23:01;;;;;;;8.05;3.30;;;;;;;12.11;85.55;100683.39;1854259;76;20169;-45
2022/12/13 02:25:45;;;;;;;11.00;3.70;;;;;;;12.09;85.47;100680.44;1851616;77;21043;-44
2022/12/13 02:28:45;;;;;;;9.20;3.90;;;;;;;12.07;85.44;100680.51;1850589;77;21648;-45
2022/12/13 02:31:17;;;;;;;11.33;4.08;;;;;;;12.05;85.38;100681.52;1823604;77;21110;-45
2022/12/13 02:34:04;;;;;;;8.20;3.45;;;;;;;12.05;85.28;100680.20;1835654;77;21047;-47
2022/12/13 02:36:56;;;;;;;9.15;3.83;;;;;;;12.05;85.28;100674.92;1852571;76;21039;-46
2022/12/13 02:39:28;;;;;;;12.73;4.10;;;;;;;12.02;85.47;100669.77;1848936;77;21207;-45
2022/12/13 02:42:00;;;;;;;12.65;4.00;;;;;;;12.00;85.46;100672.48;1843914;77;21038;-45
2022/12/13 02:44:30;;;;;;;;;;;;;;;11.96;85.71;100678.36;1864561;77;21033;-46
2022/12/13 02:47:11;;;;;;;12.58;4.28;;;;;;;11.92;85.80;100661.43;1849189;76;20253;-49
2022/12/13 02:49:42;;;;;;;9.90;4.15;;;;;;;11.88;85.98;100672.55;1844961;77;21121;-45
2022/12/13 02:52:15;;;;;;;9.55;4.28;;;;;;;11.86;86.05;100670.45;1854219;77;21156;-44
2022/12/13 02:54:44;;;;;;;15.38;4.47;;;;;;;11.86;86.10;100666.49;1846871;76;21030;-44
2022/12/13 02:57:32;;;;;;;13.48;4.30;;;;;;;11.83;86.39;100672.38;1854336;77;21132;-44
2022/12/13 03:00:03;;;;;;;14.25;4.37;;;;;;;11.79;86.52;100672.50;1854166;77;21129;-43
2022/12/13 03:02:38;;;;;;;12.50;4.25;;;;;;;11.79;86.42;100667.70;1853579;77;21570;-49
2022/12/13 03:08:00;;;;;;;13.00;4.08;;;;;;;11.79;86.31;100667.22;1854301;77;21034;-45
2022/12/13 03:10:35;;;;;;;13.98;5.40;;;;;;;11.82;86.25;100671.97;1853292;77;21101;-47
2022/12/13 03:16:02;;;;;;;12.03;3.83;;;;;;;11.81;86.62;100659.25;1854273;77;21066;-46
2022/12/13 03:18:33;;;;;;;9.43;4.08;;;;;;;11.82;86.49;100665.37;1854361;77;21055;-50
2022/12/13 03:21:05;;;;;;;9.60;4.87;;;;;;;11.83;86.38;100660.50;1854241;77;21051;-47
2022/12/13 03:23:34;;;;;;;13.35;4.08;;;;;;;11.82;86.62;100658.30;1854297;77;21074;-48
2022/12/13 03:26:08;;;;;;;10.20;4.95;;;;;;;11.84;86.55;100657.80;1854246;77;21097;-46
2022/12/13 03:28:38;;;;;;;10.43;4.22;;;;;;;11.84;86.76;100655.60;1854192;77;21026;-49
2022/12/13 03:31:07;;;;;;;11.25;3.90;;;;;;;11.82;87.46;100659.62;1852155;76;21528;-48
2022/12/13 03:33:37;;;;;;;14.40;4.25;;;;;;;11.82;87.36;100655.66;1854199;77;21250;-45
2022/12/13 03:36:08;;;;;;;10.90;4.12;;;;;;;11.80;87.57;100646.97;1854286;77;21018;-46
2022/12/13 03:38:39;;;;;;;11.15;4.58;;;;;;;11.80;87.61;100653.56;1854319;77;21023;-46
2022/12/13 03:41:11;;;;;;;8.15;4.40;;;;;;;11.81;87.54;100655.77;1854037;77;21051;-46
2022/12/13 03:43:40;;;;;;;10.82;3.85;;;;;;;11.79;87.61;100640.84;1854025;77;21164;-47
2022/12/13 03:46:09;;;;;;;7.00;3.10;;;;;;;11.78;87.77;100639.59;1854235;77;21493;-47
2022/12/13 03:48:39;;;;;;;9.23;3.90;;;;;;;11.79;87.74;100647.91;1853394;76;21054;-44
2022/12/13 03:51:08;;;;;;;8.58;4.12;;;;;;;11.78;87.87;100649.70;1852450;77;21059;-44
2022/12/13 03:53:37;;;;;;;14.87;3.95;;;;;;;11.79;87.84;100650.55;1853338;77;21458;-48
2022/12/13 03:56:06;;;;;;;7.55;2.25;;;;;;;11.78;87.85;100648.83;1854319;77;21067;-47
2022/12/13 03:58:36;;;;;;;7.80;4.28;;;;;;;11.75;88.06;100643.70;1852195;77;21117;-47
2022/12/13 04:01:07;;;;;;;9.60;4.42;;;;;;;11.74;88.06;100641.98;1852759;77;21050;-48
2022/12/13 04:03:39;;;;;;;15.10;4.25;;;;;;;11.74;88.02;100638.88;1854064;77;21062;-46
2022/12/13 04:06:09;;;;;;;14.10;4.33;;;;;;;11.72;88.04;100636.77;1854268;77;21120;-46
2022/12/13 04:08:39;;;;;;;16.55;5.90;;;;;;;11.73;87.92;100633.22;1846201;77;21489;-47
2022/12/13 04:13:55;;;;;;;15.60;5.30;;;;;;;11.73;87.76;100633.66;1850410;77;21055;-46
2022/12/13 04:16:24;;;;;;;13.55;4.65;;;;;;;11.72;87.69;100639.88;1850423;77;21133;-45
2022/12/13 04:18:53;;;;;;;13.48;5.10;;;;;;;11.70;87.71;100644.37;1850406;77;21564;-47
2022/12/13 04:21:22;;;;;;;13.10;5.03;;;;;;;11.69;87.62;100640.89;1850302;77;21185;-46
2022/12/13 04:23:51;;;;;;;15.43;5.17;;;;;;;11.70;87.62;100641.73;1850403;77;21067;-47
2022/12/13 04:26:20;;;;;;;11.70;3.95;;;;;;;11.68;87.76;100633.04;1854005;77;21070;-45
2022/12/13 04:28:49;;;;;;;13.13;5.58;;;;;;;11.64;87.93;100636.72;1854264;77;21110;-46
2022/12/13 04:31:18;;;;;;;14.33;4.78;;;;;;;11.61;87.80;100632.92;1854322;77;21046;-46
2022/12/13 04:33:47;;;;;;;9.43;3.65;;;;;;;11.59;87.83;100633.83;1886141;76;21073;-45
2022/12/13 04:36:18;;;;;;;13.48;5.28;;;;;;;11.57;87.75;100630.41;1878268;76;21056;-47
2022/12/13 04:38:48;;;;;;;14.85;4.65;;;;;;;11.55;87.72;100628.78;1869961;77;21071;-46
2022/12/13 04:41:38;;;;;;;12.45;5.28;;;;;;;11.52;87.77;100628.91;1869252;76;21124;-48
2022/12/13 04:44:09;;;;;;;13.85;5.67;;;;;;;11.50;87.83;100626.33;1869772;77;21021;-43
2022/12/13 04:46:38;;;;;;;13.90;5.15;;;;;;;11.47;88.01;100626.48;1876383;76;21460;-46
2022/12/13 04:49:07;;;;;;;8.60;3.98;;;;;;;11.45;88.13;100625.67;1888023;76;20994;-44
2022/12/13 04:51:36;;;;;;;12.98;4.65;;;;;;;11.45;88.29;100631.42;1877652;76;20985;-45
2022/12/13 04:54:06;;;;;;;14.35;5.62;;;;;;;11.45;88.34;100631.42;1863568;76;20997;-45
2022/12/13 04:56:35;;;;;;;8.65;4.17;;;;;;;11.46;88.35;100629.19;1887676;75;21026;-46
2022/12/13 04:59:04;;;;;;;7.58;3.42;;;;;;;11.46;88.34;100624.77;1887636;76;21009;-47
2022/12/13 05:01:34;;;;;;;11.70;4.87;;;;;;;11.46;88.19;100627.40;1887946;76;21135;-47
2022/12/13 05:04:04;;;;;;;10.28;4.45;;;;;;;11.44;88.19;100621.34;1887858;76;21468;-48
2022/12/13 05:06:32;;;;;;;11.25;4.22;;;;;;;11.40;88.44;100623.26;1888019;76;21042;-46
2022/12/13 05:09:02;;;;;;;6.42;2.60;;;;;;;11.40;88.53;100632.95;1888023;76;21496;-46
2022/12/13 05:11:30;;;;;;;16.60;6.33;;;;;;;11.37;88.61;100627.81;1887978;76;21092;-48
2022/12/13 05:13:59;;;;;;;8.23;4.05;;;;;;;11.34;89.18;100622.22;1887968;76;21054;-46
2022/12/13 05:16:28;;;;;;;7.03;3.58;;;;;;;11.33;89.23;100620.49;1854685;76;21160;-47
2022/12/13 05:18:57;;;;;;;15.48;5.42;;;;;;;11.33;89.18;100617.86;1849614;77;21059;-45
2022/12/13 05:21:25;;;;;;;12.73;4.83;;;;;;;11.31;89.12;100615.76;1849591;77;21099;-47
2022/12/13 05:23:54;;;;;;;5.53;3.33;;;;;;;11.28;89.07;100621.16;1849401;77;21054;-46
2022/12/13 05:26:23;;;;;;;11.28;4.70;;;;;;;11.27;89.05;100618.14;1849537;77;21140;-46
2022/12/13 05:28:52;;;;;;;8.78;3.17;;;;;;;11.27;89.22;100619.45;1849613;77;21152;-47
2022/12/13 05:31:20;;;;;;;14.30;4.85;;;;;;;11.27;89.28;100615.94;1849541;77;21184;-47
2022/12/13 05:33:54;;;;;;;10.53;3.80;;;;;;;11.30;89.30;100619.77;1829855;77;21121;-45
2022/12/13 05:36:24;;;;;;;9.48;2.83;;;;;;;11.29;89.42;100620.24;1819438;78;21109;-46
2022/12/13 05:38:52;;;;;;;12.85;4.55;;;;;;;11.29;89.46;100622.88;1819956;79;21058;-46
2022/12/13 05:41:26;;;;;;;10.85;3.58;;;;;;;11.30;89.41;100625.89;1819985;79;21634;-46
2022/12/13 05:43:55;;;;;;;7.45;2.80;;;;;;;11.27;89.60;100617.27;1820115;79;21445;-46
2022/12/13 05:46:24;;;;;;;13.80;4.22;;;;;;;11.25;89.76;100621.31;1820070;77;21117;-46
2022/12/13 05:48:53;;;;;;;9.65;3.72;;;;;;;11.26;89.72;100616.88;1819964;77;21144;-47
2022/12/13 05:51:22;;;;;;;8.73;3.33;;;;;;;11.26;90.05;100624.80;1826500;77;21066;-46
2022/12/13 05:53:51;;;;;;;11.60;3.90;;;;;;;11.26;90.13;100620.84;1854150;77;21485;-46
2022/12/13 05:56:20;;;;;;;13.75;4.50;;;;;;;11.26;90.22;100616.88;1854263;77;21102;-46
2022/12/13 05:58:49;;;;;;;6.42;2.58;;;;;;;11.28;90.25;100615.03;1854079;77;21437;-46
2022/12/13 06:01:17;;;;;;;8.33;3.17;;;;;;;11.29;90.18;100612.34;1852606;77;21105;-48
2022/12/13 06:03:46;;;;;;;14.65;5.08;;;;;;;11.29;90.26;100616.77;1852982;77;21043;-45
2022/12/13 06:06:17;;;;;;;8.55;3.60;;;;;;;11.28;90.46;100613.72;1852932;76;21102;-45
2022/12/13 06:08:47;;;;;;;8.38;4.10;;;;;;;11.30;91.25;100609.23;1854032;77;21031;-46
2022/12/13 06:11:15;;;;;;;8.65;3.87;;;;;;;11.30;91.48;100614.03;1849766;77;21078;-45
2022/12/13 06:13:44;;;;;;;12.35;3.83;;;;;;;11.32;91.47;100621.88;1819917;77;21054;-47
2022/12/13 06:16:14;;;;;;;6.10;2.70;;;;;;;11.31;91.47;100615.76;1820126;79;21113;-45
2022/12/13 06:18:42;;;;;;;6.92;4.08;;;;;;;11.33;91.06;100616.54;1820101;79;21493;-45
2022/12/13 06:21:13;;;;;;;8.38;3.47;;;;;;;11.34;90.89;100621.34;1818971;79;21188;-45
2022/12/13 06:23:42;;;;;;;8.40;3.67;;;;;;;11.33;90.69;100613.06;1827979;77;21050;-46
2022/12/13 06:26:11;;;;;;;6.97;3.98;;;;;;;11.34;90.51;100614.31;1854309;77;21121;-45
2022/12/13 06:28:39;;;;;;;9.70;3.87;;;;;;;11.36;90.38;100611.14;1854239;77;21022;-45
2022/12/13 06:31:08;;;;;;;9.45;3.10;;;;;;;11.38;90.31;100607.13;1854269;77;21026;-45
2022/12/13 06:33:37;;;;;;;7.17;3.92;;;;;;;11.42;90.08;100608.70;1854418;76;21078;-47
2022/12/13 06:36:09;;;;;;;8.35;3.92;;;;;;;11.44;89.84;100593.66;1854258;77;21169;-46
2022/12/13 06:38:38;;;;;;;9.13;3.58;;;;;;;11.46;89.65;100597.08;1855027;77;21054;-49
2022/12/13 06:41:17;;;;;;;4.35;2.08;;;;;;;11.47;89.63;100597.48;1854823;77;21599;-46
2022/12/13 06:43:46;;;;;;;6.67;2.95;;;;;;;11.49;89.63;100591.68;1853879;77;21074;-43
2022/12/13 06:46:15;;;;;;;7.77;2.90;;;;;;;11.50;89.60;100582.83;1855046;77;21123;-43
2022/12/13 06:48:44;;;;;;;8.70;4.30;;;;;;;11.53;89.58;100591.92;1854940;77;21127;-45
2022/12/13 06:51:13;;;;;;;7.05;2.92;;;;;;;11.61;89.64;100588.09;1854849;76;21049;-46
2022/12/13 06:53:42;;;;;;;6.90;1.95;;;;;;;11.67;89.53;100582.52;1854922;77;21096;-46
2022/12/13 06:56:13;;;;;;;7.95;3.40;;;;;;;11.67;89.45;100585.16;1854963;77;21073;-43
2022/12/13 06:58:43;;;;;;;10.58;3.47;;;;;;;11.66;89.46;100584.78;1854920;77;21021;-45
2022/12/13 07:01:14;;;;;;;10.50;4.30;;;;;;;11.67;89.53;100590.43;1854910;77;21132;-45
2022/12/13 07:03:43;;;;;;;6.87;3.70;;;;;;;11.64;89.63;100595.84;1854819;77;21117;-51
2022/12/13 07:06:18;;;;;;;12.50;4.78;;;;;;;11.63;89.63;100583.59;1854851;77;21106;-50
2022/12/13 07:08:52;;;;;;;8.33;3.87;;;;;;;11.64;89.65;100581.33;1822706;79;21465;-44
2022/12/13 07:11:24;;;;;;;11.48;4.72;;;;;;;11.65;89.59;100584.38;1822662;79;21172;-47
2022/12/13 07:13:57;;;;;;;7.20;2.70;;;;;;;11.67;89.49;100583.37;1822647;79;21050;-46
2022/12/13 07:16:30;;;;;;;5.03;2.42;;;;;;;11.69;89.38;100596.05;1820075;79;21157;-46
2022/12/13 07:19:01;;;;;;;7.03;3.25;;;;;;;11.70;89.35;100600.85;1846601;77;21053;-46
2022/12/13 07:21:31;;;;;;;8.30;4.12;;;;;;;11.71;89.29;100605.19;1854925;77;21045;-46
2022/12/13 07:24:00;;;;;;;9.38;4.22;;;;;;;11.71;89.30;100599.91;1854943;77;21049;-46
2022/12/13 07:26:31;;;;;;;12.07;5.28;;;;;;;11.72;89.25;100604.27;1854594;76;21173;-44
2022/12/13 07:28:59;;;;;;;10.38;5.05;;;;;;;11.73;89.32;100595.41;1854770;77;21038;-44
2022/12/13 07:31:28;;;;;;;5.72;2.60;;;;;;;11.74;89.33;100595.34;1854877;77;21140;-48
2022/12/13 07:33:57;;;;;;;12.43;5.33;;;;;;;11.78;89.29;100590.79;1854849;77;21559;-46
2022/12/13 07:36:26;;;;;;;7.65;3.20;;;;;;;11.83;89.25;100601.14;1854365;77;21047;-46
2022/12/13 07:38:57;;;;;;;9.48;3.45;;;;;;;11.85;89.24;100588.73;1854197;77;21473;-46
2022/12/13 07:41:27;;;;;;;10.20;4.53;;;;;;;11.88;89.11;100590.77;1854182;76;21555;-46
2022/12/13 07:43:56;;;;;;;11.38;5.55;;;;;;;11.91;89.05;100585.36;1854322;77;21125;-46
2022/12/13 07:46:25;;;;;;;9.18;4.22;;;;;;;11.95;89.04;100586.07;1854497;77;21026;-46
2022/12/13 07:48:53;;;;;;;13.45;5.30;;;;;;;11.98;88.92;100580.19;1854264;77;21136;-47
2022/12/13 07:51:22;;;;;;;14.38;5.08;;;;;;;12.03;88.90;100583.09;1854052;77;21107;-45
2022/12/13 07:53:51;;;;;;;12.20;4.62;;;;;;;12.06;88.79;100565.77;1853936;77;21089;-46
2022/12/13 07:56:19;;;;;;;12.33;5.65;;;;;;;12.12;88.73;100561.54;1854001;77;21045;-46
2022/12/13 07:58:48;;;;;;;16.97;5.28;;;;;;;12.14;88.59;100542.05;1854010;77;21188;-46
2022/12/13 08:01:17;;;;;;;12.30;5.05;;;;;;;12.18;88.51;100533.52;1854546;76;21062;-45
2022/12/13 08:03:48;;;;;;;11.38;4.80;;;;;;;12.20;88.41;100531.66;1884424;76;21066;-45
2022/12/13 08:06:18;;;;;;;18.00;5.40;;;;;;;12.21;88.32;100538.66;1885019;75;21030;-45
2022/12/13 08:08:50;;;;;;;9.18;4.62;;;;;;;12.21;88.33;100538.66;1854210;77;21046;-45
2022/12/13 08:11:18;;;;;;;15.20;5.87;;;;;;;12.26;88.34;100535.30;1854198;77;21022;-47
2022/12/13 08:13:46;;;;;;;10.93;5.50;;;;;;;12.29;88.35;100531.20;1854348;77;21066;-45
2022/12/13 08:16:17;;;;;;;13.75;5.40;;;;;;;12.33;88.28;100524.83;1853445;77;21168;-46
2022/12/13 08:18:48;;;;;;;11.45;5.20;;;;;;;12.34;88.26;100521.27;1851785;77;21046;-47
2022/12/13 08:21:17;;;;;;;15.25;6.37;;;;;;;12.37;88.21;100522.89;1854363;77;21074;-46
2022/12/13 08:23:47;;;;;;;16.73;6.12;;;;;;;12.36;88.23;100510.16;1854209;77;21124;-46
2022/12/13 08:26:16;;;;;;;18.73;6.37;;;;;;;12.38;88.08;100501.33;1853016;77;21035;-46
2022/12/13 08:28:45;;;;;;;15.05;6.08;;;;;;;12.40;87.91;100493.70;1854252;77;21075;-45
2022/12/13 08:31:14;;;;;;;18.85;6.33;;;;;;;12.39;87.75;100491.98;1853476;77;21055;-46
2022/12/13 08:33:45;;;;;;;11.50;6.05;;;;;;;12.38;87.60;100489.45;1853316;76;21176;-45
2022/12/13 08:36:16;;;;;;;16.60;6.30;;;;;;;12.39;87.43;100491.14;1854169;76;21094;-44
2022/12/13 08:38:45;;;;;;;7.37;3.15;;;;;;;12.41;87.33;100489.27;1854119;77;21041;-44
2022/12/13 08:41:15;;;;;;;14.85;5.58;;;;;;;12.40;87.11;100487.58;1854163;76;21577;-46
2022/12/13 08:43:44;;;;;;;18.07;6.17;;;;;;;12.41;86.78;100478.70;1853316;77;21087;-46
2022/12/13 08:46:13;;;;;;;13.80;4.70;;;;;;;12.41;86.53;100470.31;1853925;76;21125;-45
2022/12/13 08:48:41;;;;;;;12.47;5.17;;;;;;;12.43;86.23;100458.36;1871161;75;21566;-44
2022/12/13 08:51:13;;;;;;;7.22;4.28;;;;;;;12.46;85.91;100447.64;1858881;76;21038;-45
2022/12/13 08:53:42;;;;;;;10.98;4.33;;;;;;;12.52;85.54;100431.47;1853996;77;21074;-45
2022/12/13 08:56:12;;;;;;;9.83;4.05;;;;;;;12.57;85.15;100429.45;1854092;77;21053;-46
2022/12/13 08:58:41;;;;;;;15.03;3.87;;;;;;;12.60;84.91;100427.98;1854086;77;21062;-46
2022/12/13 09:01:11;;;;;;;10.75;5.60;;;;;;;12.59;84.65;100424.94;1854104;77;21116;-44
2022/12/13 09:03:40;;;;;;;9.25;4.17;;;;;;;12.60;84.39;100410.81;1854011;77;21108;-45
2022/12/13 09:06:10;;;;;;;10.13;3.95;;;;;;;12.62;84.25;100409.42;1854009;77;21119;-46
2022/12/13 09:08:39;;;;;;;14.50;4.87;;;;;;;12.62;84.04;100410.27;1854067;77;21042;-45
2022/12/13 09:11:09;;;;;;;11.22;4.97;;;;;;;12.64;83.84;100404.91;1853898;77;21066;-45
2022/12/13 09:13:39;;;;;;;13.25;6.50;;;;;;;12.65;83.76;100405.27;1854126;77;21029;-45
2022/12/13 09:16:10;;;;;;;12.70;5.33;;;;;;;12.63;83.68;100407.99;1854010;77;21018;-45
2022/12/13 09:18:39;;;;;;;9.48;5.28;;;;;;;12.61;83.55;100405.06;1853988;77;21553;-45
2022/12/13 09:21:10;;;;;;;4.58;2.65;;;;;;;12.59;83.60;100401.64;1854121;77;21148;-46
2022/12/13 09:23:44;;;;;;;8.40;4.90;;;;;;;12.57;83.54;100398.23;1853990;76;21082;-45
2022/12/13 09:26:12;;;;;;;10.63;5.03;;;;;;;12.56;83.61;100402.67;1853045;77;21161;-46
2022/12/13 09:28:42;;;;;;;11.57;4.90;;;;;;;12.60;83.50;100388.37;1853986;77;21074;-45
2022/12/13 09:31:15;;;;;;;10.53;5.15;;;;;;;12.66;83.43;100384.06;1852916;77;21641;-46
2022/12/13 09:33:44;;;;;;;12.98;4.83;;;;;;;12.71;83.37;100376.75;1853988;77;21054;-47
2022/12/13 09:36:20;;;;;;;10.58;5.03;;;;;;;12.78;83.15;100384.34;1853860;77;21074;-45
2022/12/13 09:38:48;;;;;;;8.90;3.65;;;;;;;12.83;83.10;100375.70;1853979;77;21049;-44
2022/12/13 09:41:26;;;;;;;8.95;4.15;;;;;;;12.89;83.03;100384.61;1854176;77;21127;-45
2022/12/13 09:43:57;;;;;;;5.95;3.42;;;;;;;12.91;82.74;100388.02;1853730;77;21568;-45
2022/12/13 09:46:32;;;;;;;8.78;4.62;;;;;;;12.93;82.51;100383.53;1852664;77;21041;-45
2022/12/13 09:49:04;;;;;;;11.75;4.20;;;;;;;12.98;82.37;100397.32;1854008;77;21128;-48
2022/12/13 09:51:35;;;;;;;9.35;4.60;;;;;;;13.01;82.33;100401.61;1848294;77;21089;-44
2022/12/13 09:54:05;;;;;;;8.05;4.20;;;;;;;13.02;82.28;100404.17;1853897;77;21042;-44
2022/12/13 09:56:34;;;;;;;9.48;4.35;;;;;;;13.00;82.28;100412.63;1853970;77;21145;-45
2022/12/13 09:59:03;;;;;;;13.18;5.40;;;;;;;12.99;82.26;100414.05;1853844;77;21504;-45
2022/12/13 10:01:33;;;;;;;11.55;4.72;;;;;;;12.97;82.25;100410.17;1854140;77;21021;-45
2022/12/13 10:04:02;;;;;;;8.40;4.70;;;;;;;12.98;82.17;100407.89;1853907;77;21528;-44
2022/12/13 10:06:33;;;;;;;11.33;4.83;;;;;;;12.99;81.98;100401.69;1853943;77;21131;-44
2022/12/13 10:09:01;;;;;;;11.43;4.97;;;;;;;12.99;81.86;100399.05;1853940;77;21049;-46
2022/12/13 10:11:30;;;;;;;9.00;5.17;;;;;;;13.01;82.06;100387.06;1853910;77;21050;-45
2022/12/13 10:14:01;;;;;;;10.55;5.12;;;;;;;13.03;82.07;100368.02;1853932;77;21070;-44
2022/12/13 10:16:39;;;;;;;12.15;5.17;;;;;;;13.08;81.99;100364.66;1854003;77;21144;-44
2022/12/13 10:19:23;;;;;;;10.03;4.72;;;;;;;13.15;81.93;100362.05;1850921;75;21045;-44
2022/12/13 10:21:51;;;;;;;9.68;4.35;;;;;;;13.22;81.64;100352.81;1853615;77;21119;-45
2022/12/13 10:24:32;;;;;;;13.13;5.70;;;;;;;13.34;81.36;100346.52;1854034;77;21119;-44
2022/12/13 10:27:16;;;;;;;13.90;5.70;;;;;;;13.46;81.03;100341.82;1853970;76;21045;-44
2022/12/13 10:30:12;;;;;;;11.00;5.65;;;;;;;13.50;80.69;100336.28;1854067;77;21476;-45
2022/12/13 10:32:58;;;;;;;10.08;4.72;;;;;;;13.50;80.06;100330.99;1853929;77;21107;-44
2022/12/13 10:35:35;;;;;;;12.88;5.85;;;;;;;13.53;79.95;100341.02;1854045;77;21037;-44
2022/12/13 10:38:19;;;;;;;9.73;4.45;;;;;;;13.50;79.81;100357.45;1862572;76;21156;-44
2022/12/13 10:40:48;;;;;;;9.53;5.67;;;;;;;13.43;79.63;100345.51;1863248;77;21057;-45
2022/12/13 10:43:29;;;;;;;11.28;5.28;;;;;;;13.38;79.63;100352.00;1863256;77;21489;-44
2022/12/13 10:46:00;;;;;;;13.68;6.55;;;;;;;13.36;79.68;100344.63;1863187;77;21009;-46
2022/12/13 10:48:34;;;;;;;11.97;5.78;;;;;;;13.34;79.74;100346.03;1863220;77;21029;-45
2022/12/13 10:51:09;;;;;;;13.70;6.03;;;;;;;13.35;79.76;100346.88;1863146;77;21170;-46
2022/12/13 10:53:59;;;;;;;13.88;5.60;;;;;;;13.36;79.81;100345.95;1863206;77;21135;-46
2022/12/13 10:56:48;;;;;;;12.58;5.65;;;;;;;13.39;79.86;100337.82;1863157;77;21069;-46
2022/12/13 10:59:20;;;;;;;10.95;5.62;;;;;;;13.45;79.92;100325.11;1863369;77;21061;-44
2022/12/13 11:01:49;;;;;;;11.93;6.03;;;;;;;13.51;79.76;100335.80;1863198;77;21045;-44
2022/12/13 11:04:32;;;;;;;12.53;4.28;;;;;;;13.55;79.74;100332.52;1863302;77;21065;-45
2022/12/13 11:07:02;;;;;;;;;;;;;;;13.58;79.77;100331.87;1866124;77;21053;-45
2022/12/13 11:09:33;;;;;;;11.12;4.78;;;;;;;13.66;79.50;100334.06;1863331;77;20368;-45
2022/12/13 11:12:06;;;;;;;11.28;5.80;;;;;;;13.70;79.57;100340.42;1863363;76;21111;-44
2022/12/13 11:14:37;;;;;;;13.15;6.12;;;;;;;13.71;79.16;100343.43;1862514;77;21155;-44
2022/12/13 11:17:11;;;;;;;17.37;6.35;;;;;;;13.72;79.11;100337.66;1863498;76;21444;-44
2022/12/13 11:19:43;;;;;;;13.55;6.08;;;;;;;13.71;79.05;100325.39;1863158;76;21026;-44
2022/12/13 11:22:20;;;;;;;15.90;6.60;;;;;;;13.68;78.92;100330.85;1862903;76;21139;-45
2022/12/13 11:24:57;;;;;;;12.05;5.97;;;;;;;13.63;78.86;100329.81;1863242;77;21543;-45
2022/12/13 11:27:29;;;;;;;17.52;6.37;;;;;;;13.62;78.78;100327.25;1837537;77;21578;-45
2022/12/13 11:30:23;;;;;;;11.38;5.55;;;;;;;13.61;78.52;100324.21;1861208;77;21057;-44
2022/12/13 11:33:25;;;;;;;15.95;6.42;;;;;;;13.63;78.64;100323.65;1863334;77;21480;-44
2022/12/13 11:35:56;;;;;;;14.18;6.28;;;;;;;13.66;78.58;100326.13;1863256;77;21076;-44
2022/12/13 11:38:46;;;;;;;13.65;5.60;;;;;;;13.71;78.35;100317.45;1862836;76;21080;-45
2022/12/13 11:41:23;;;;;;;10.45;5.12;;;;;;;13.73;78.07;100312.92;1791575;79;21110;-46
2022/12/13 11:44:01;;;;;;;15.30;6.55;;;;;;;13.74;77.78;100317.73;1791789;80;21149;-44
2022/12/13 11:46:38;;;;;;;19.65;6.67;;;;;;;13.75;77.48;100312.84;1825938;77;21463;-45
2022/12/13 11:49:20;;;;;;;16.15;6.08;;;;;;;13.75;77.30;100307.06;1862880;77;21109;-45
2022/12/13 11:51:57;;;;;;;21.20;7.35;;;;;;;13.80;77.18;100301.03;1862637;77;21147;-44